Time;durP1;ratioP1;P1;durP2;ratioP2;P2;SDS_P1;SDS_P2;PMS_P1;PMS_P2;Temp;Humidity;BMP_temperature;BMP_pressure;BME280_temperature;BME280_humidity;BME280_pressure;Samples;Min_cycle;Max_cycle;Signal;HPM_P1;HPM_P2
2020/12/06 00:00:54;;;;;;;23.58;12.32;;;;;;;7.98;86.44;93677.72;5023317;28;20037;-56
2020/12/06 00:03:20;;;;;;;31.35;15.20;;;;;;;7.90;86.21;93679.63;5022353;28;20021;-55
2020/12/06 00:05:46;;;;;;;26.63;14.10;;;;;;;7.90;86.53;93682.38;5030682;28;20108;-56
2020/12/06 00:08:11;;;;;;;32.40;15.05;;;;;;;7.99;86.32;93681.97;5028686;27;20108;-55
2020/12/06 00:10:36;;;;;;;29.85;15.40;;;;;;;8.06;86.42;93690.31;5034205;27;20116;-56
2020/12/06 00:13:02;;;;;;;24.52;12.15;;;;;;;8.19;85.23;93684.84;5023136;28;20481;-57
2020/12/06 00:15:28;;;;;;;20.85;11.60;;;;;;;8.15;85.08;93695.41;5021377;28;20038;-56
2020/12/06 00:17:53;;;;;;;26.02;12.43;;;;;;;7.99;85.41;93670.97;5030985;28;20102;-56
2020/12/06 00:20:19;;;;;;;22.25;10.13;;;;;;;8.08;85.63;93700.78;5025996;28;20022;-57
2020/12/06 00:22:45;;;;;;;23.15;11.95;;;;;;;7.93;85.98;93695.78;5020523;28;20025;-56
2020/12/06 00:25:10;;;;;;;28.27;14.70;;;;;;;7.84;86.63;93690.69;5025688;28;20033;-56
2020/12/06 00:27:36;;;;;;;29.00;14.75;;;;;;;7.99;86.47;93695.72;5021585;28;20034;-57
2020/12/06 00:30:05;;;;;;;30.17;16.33;;;;;;;7.97;86.35;93701.00;5031168;28;20056;-57
2020/12/06 00:32:30;;;;;;;27.67;14.52;;;;;;;7.94;86.36;93700.03;5029963;28;20029;-57
2020/12/06 00:34:55;;;;;;;43.08;20.35;;;;;;;7.92;86.68;93701.84;5024453;28;20082;-56
2020/12/06 00:37:21;;;;;;;28.63;15.07;;;;;;;7.92;86.58;93699.09;5026556;28;21258;-56
2020/12/06 00:39:46;;;;;;;28.40;14.98;;;;;;;8.02;86.25;93697.41;5030112;28;20053;-55
2020/12/06 00:42:12;;;;;;;33.40;16.20;;;;;;;8.07;86.00;93694.56;5021516;28;20461;-57
2020/12/06 00:44:37;;;;;;;31.45;15.57;;;;;;;8.02;85.81;93700.91;5032678;28;20107;-58
2020/12/06 00:47:03;;;;;;;28.58;13.35;;;;;;;8.07;85.79;93697.31;5024063;28;20025;-56
2020/12/06 00:49:28;;;;;;;28.15;13.45;;;;;;;7.99;86.06;93687.47;5031269;28;20041;-53
2020/12/06 00:51:54;;;;;;;24.48;12.80;;;;;;;7.97;86.30;93692.75;5021028;28;20030;-56
2020/12/06 00:54:19;;;;;;;29.35;13.30;;;;;;;7.91;86.31;93697.59;5027616;28;20114;-54
2020/12/06 00:56:45;;;;;;;24.15;12.30;;;;;;;8.00;86.26;93688.94;5028487;28;20040;-52
2020/12/06 00:59:10;;;;;;;26.55;14.68;;;;;;;8.04;85.69;93694.88;5025273;28;20030;-56
2020/12/06 01:01:39;;;;;;;27.00;14.15;;;;;;;8.03;85.74;93680.41;5024457;28;20083;-56
2020/12/06 01:04:04;;;;;;;;;;;;;;;7.93;85.74;93686.81;5027291;28;20551;-53
2020/12/06 01:06:30;;;;;;;22.60;12.35;;;;;;;7.93;86.33;93684.81;5020828;28;19921;-55
2020/12/06 01:08:55;;;;;;;23.15;12.38;;;;;;;8.02;86.11;93692.66;5026648;28;20025;-55
2020/12/06 01:11:21;;;;;;;25.08;14.15;;;;;;;7.98;85.76;93694.97;5024923;28;20021;-56
2020/12/06 01:13:46;;;;;;;30.52;13.52;;;;;;;7.96;85.99;93688.50;5022607;28;20404;-56
2020/12/06 01:16:13;;;;;;;19.10;10.50;;;;;;;7.98;85.80;93688.72;5027923;28;20060;-56
2020/12/06 01:18:39;;;;;;;24.25;12.75;;;;;;;7.98;85.84;93686.72;5027800;28;20035;-51
2020/12/06 01:21:04;;;;;;;28.40;14.45;;;;;;;8.01;85.95;93687.69;5027118;28;20025;-54
2020/12/06 01:23:29;;;;;;;25.05;12.77;;;;;;;8.02;85.87;93687.16;5024635;28;20021;-57
2020/12/06 01:25:55;;;;;;;22.98;12.27;;;;;;;8.11;85.38;93689.50;5027031;28;20085;-56
2020/12/06 01:28:20;;;;;;;27.52;13.07;;;;;;;8.01;85.28;93687.69;5031604;28;20353;-56
2020/12/06 01:30:46;;;;;;;19.17;10.55;;;;;;;8.10;85.54;93681.78;5027903;28;20037;-53
2020/12/06 01:33:11;;;;;;;18.98;9.95;;;;;;;8.08;85.54;93673.28;5027557;28;20052;-54
2020/12/06 01:35:36;;;;;;;24.30;12.68;;;;;;;8.11;85.02;93677.75;5027215;28;20032;-55
2020/12/06 01:38:02;;;;;;;21.85;11.52;;;;;;;8.08;85.41;93678.78;5031383;28;20473;-52
2020/12/06 01:40:28;;;;;;;20.52;11.25;;;;;;;8.14;85.27;93680.16;5022320;28;20484;-54
2020/12/06 01:42:53;;;;;;;26.65;13.27;;;;;;;8.00;85.13;93669.69;5027225;28;20037;-54
2020/12/06 01:45:19;;;;;;;21.30;11.38;;;;;;;7.98;85.35;93674.97;5034987;28;20460;-53
2020/12/06 01:47:44;;;;;;;23.83;12.50;;;;;;;8.18;85.27;93688.88;5022502;28;20041;-56
2020/12/06 01:50:12;;;;;;;22.75;12.63;;;;;;;8.13;85.15;93686.22;5028838;28;20887;-53
2020/12/06 01:52:39;;;;;;;38.33;12.55;;;;;;;8.13;85.26;93686.97;5027058;27;20063;-57
2020/12/06 01:55:05;;;;;;;20.92;11.38;;;;;;;8.29;84.37;93682.47;5029011;28;20017;-56
2020/12/06 01:57:30;;;;;;;22.95;12.15;;;;;;;8.31;84.17;93677.16;5026607;28;20853;-55
2020/12/06 01:59:56;;;;;;;23.42;12.48;;;;;;;8.40;83.94;93676.75;5024591;27;20021;-55
2020/12/06 02:02:21;;;;;;;26.38;14.52;;;;;;;8.33;83.96;93677.38;5027824;28;20488;-57
2020/12/06 02:04:47;;;;;;;24.08;12.90;;;;;;;8.34;83.47;93676.09;5026691;28;20040;-55
2020/12/06 02:07:12;;;;;;;25.55;13.00;;;;;;;8.32;83.70;93681.38;5025761;28;20479;-56
2020/12/06 02:09:38;;;;;;;23.15;13.40;;;;;;;8.37;83.78;93683.28;5030321;28;20040;-56
2020/12/06 02:12:09;;;;;;;32.47;14.88;;;;;;;8.25;83.76;93673.75;5028693;28;20033;-56
2020/12/06 02:14:35;;;;;;;28.85;15.00;;;;;;;8.30;84.00;93681.16;5025180;28;20029;-55
2020/12/06 02:17:01;;;;;;;27.55;13.15;;;;;;;8.38;83.81;93684.78;5024620;28;20034;-56
2020/12/06 02:19:26;;;;;;;32.15;15.63;;;;;;;8.39;83.86;93680.75;5030076;28;20049;-56
2020/12/06 02:21:51;;;;;;;29.95;17.20;;;;;;;8.61;82.61;93685.84;5037573;28;20025;-56
2020/12/06 02:24:18;;;;;;;30.13;14.32;;;;;;;8.59;82.37;93682.88;5032499;28;20457;-54
2020/12/06 02:26:46;;;;;;;35.75;14.00;;;;;;;8.46;82.90;93680.13;5027430;28;20293;-56
2020/12/06 02:29:12;;;;;;;31.50;14.23;;;;;;;8.36;83.28;93679.81;5026343;28;20477;-56
2020/12/06 02:31:38;;;;;;;38.83;14.43;;;;;;;8.23;83.88;93676.25;5026482;27;20119;-56
2020/12/06 02:34:04;;;;;;;33.03;15.55;;;;;;;8.23;84.24;93679.00;5023720;28;20044;-54
2020/12/06 02:36:30;;;;;;;18.25;10.38;;;;;;;8.32;84.09;93681.38;5032365;27;20392;-54
2020/12/06 02:38:56;;;;;;;25.65;11.80;;;;;;;8.27;83.71;93660.97;5029478;28;20017;-55
2020/12/06 02:41:21;;;;;;;25.40;12.52;;;;;;;8.34;83.72;93676.09;5024583;28;20045;-53
2020/12/06 02:43:47;;;;;;;26.38;13.10;;;;;;;8.40;83.53;93666.47;5028047;28;20029;-56
2020/12/06 02:46:12;;;;;;;26.92;11.82;;;;;;;8.47;83.13;93670.59;5025065;28;20037;-55
2020/12/06 02:48:38;;;;;;;20.45;9.75;;;;;;;8.42;82.87;93668.72;5030252;27;20027;-56
2020/12/06 02:51:04;;;;;;;24.35;12.73;;;;;;;8.33;83.72;93660.88;5029349;28;20025;-55
2020/12/06 02:53:30;;;;;;;25.35;13.65;;;;;;;8.31;83.75;93661.41;5030135;28;20025;-54
2020/12/06 02:55:55;;;;;;;26.83;13.95;;;;;;;8.43;83.66;93658.41;5036897;28;20043;-53
2020/12/06 02:58:20;;;;;;;26.35;13.90;;;;;;;8.41;82.94;93653.44;5035105;28;20036;-54
2020/12/06 03:00:46;;;;;;;34.92;16.17;;;;;;;8.24;83.52;93650.25;5040839;28;20032;-54
2020/12/06 03:03:11;;;;;;;32.42;16.65;;;;;;;8.26;83.92;93650.50;5029861;28;20025;-56
2020/12/06 03:05:37;;;;;;;34.00;17.60;;;;;;;8.39;83.73;93645.75;5027413;28;20082;-56
2020/12/06 03:08:02;;;;;;;39.00;23.92;;;;;;;8.16;83.20;93606.16;5026681;28;20106;-55
2020/12/06 03:10:27;;;;;;;28.67;16.80;;;;;;;8.49;82.94;93646.03;5031568;28;20009;-52
2020/12/06 03:12:53;;;;;;;33.78;20.13;;;;;;;8.48;82.66;93647.31;5027948;28;20512;-53
2020/12/06 03:15:18;;;;;;;29.80;16.10;;;;;;;8.43;83.13;93641.91;5023805;28;20025;-54
2020/12/06 03:17:44;;;;;;;31.15;17.50;;;;;;;8.44;82.90;93638.66;5024776;28;20044;-56
2020/12/06 03:20:09;;;;;;;26.60;14.00;;;;;;;8.40;83.06;93644.44;5037899;27;20382;-55
2020/12/06 03:22:34;;;;;;;28.98;15.00;;;;;;;8.32;83.39;93642.88;5031422;28;20040;-56
2020/12/06 03:25:01;;;;;;;26.30;13.32;;;;;;;8.39;83.76;93645.00;5029748;28;20831;-55
2020/12/06 03:27:27;;;;;;;27.25;15.75;;;;;;;8.45;83.41;93645.63;5031243;28;20461;-55
2020/12/06 03:29:53;;;;;;;31.80;14.48;;;;;;;8.54;82.65;93647.94;5037150;28;20033;-56
2020/12/06 03:32:19;;;;;;;26.77;14.05;;;;;;;8.45;82.73;93644.88;5023051;28;20381;-54
2020/12/06 03:34:44;;;;;;;28.70;15.23;;;;;;;8.53;82.65;93645.72;5022663;28;20029;-55
2020/12/06 03:37:09;;;;;;;24.55;13.40;;;;;;;8.62;81.99;93643.28;5033928;28;20041;-54
2020/12/06 03:39:35;;;;;;;30.45;14.88;;;;;;;8.74;81.49;93647.28;5025620;28;20013;-56
2020/12/06 03:42:00;;;;;;;30.08;15.75;;;;;;;8.68;81.43;93641.16;5038551;28;20057;-54
2020/12/06 03:44:26;;;;;;;31.02;18.23;;;;;;;8.68;81.50;93640.41;5030694;28;20488;-57
2020/12/06 03:46:51;;;;;;;33.95;17.35;;;;;;;8.74;81.39;93632.78;5025657;28;20018;-54
2020/12/06 03:49:16;;;;;;;31.05;18.10;;;;;;;8.73;81.38;93639.53;5032505;28;20478;-54
2020/12/06 03:51:42;;;;;;;36.00;18.90;;;;;;;8.63;81.59;93631.00;5025975;28;20040;-55
2020/12/06 03:54:07;;;;;;;28.23;14.05;;;;;;;8.54;81.64;93636.94;5027291;28;20029;-56
2020/12/06 03:56:33;;;;;;;25.38;12.85;;;;;;;8.49;82.25;93646.03;5033310;28;20017;-53
2020/12/06 03:58:58;;;;;;;29.15;14.23;;;;;;;8.37;82.87;93639.28;5027194;28;20549;-55
2020/12/06 04:01:23;;;;;;;21.15;12.40;;;;;;;8.42;82.95;93638.44;5028240;28;20819;-56
2020/12/06 04:03:49;;;;;;;35.28;17.17;;;;;;;8.33;83.39;93636.84;5033243;28;20033;-53
2020/12/06 04:06:14;;;;;;;22.90;12.15;;;;;;;8.35;83.38;93637.06;5027745;28;20025;-53
2020/12/06 04:08:39;;;;;;;31.15;15.68;;;;;;;8.22;83.66;93642.53;5035068;28;20504;-50
2020/12/06 04:11:05;;;;;;;27.75;13.38;;;;;;;8.23;83.91;93641.25;5030408;28;20034;-56
2020/12/06 04:13:32;;;;;;;24.50;12.27;;;;;;;8.20;84.39;93638.84;5026389;28;20025;-54
2020/12/06 04:15:58;;;;;;;29.45;15.02;;;;;;;8.19;84.15;93643.59;5034919;27;20024;-57
2020/12/06 04:18:23;;;;;;;25.80;12.23;;;;;;;8.24;83.92;93642.75;5035604;28;20664;-54
2020/12/06 04:20:49;;;;;;;21.45;11.88;;;;;;;8.37;83.55;93647.53;5031622;28;20041;-52
2020/12/06 04:23:14;;;;;;;23.85;13.65;;;;;;;8.21;83.93;93649.28;5028444;28;20025;-55
2020/12/06 04:25:40;;;;;;;28.48;12.65;;;;;;;8.18;83.82;93641.38;5027101;28;20037;-55
2020/12/06 04:28:10;;;;;;;29.92;12.63;;;;;;;8.19;84.51;93651.09;5029442;28;20036;-56
2020/12/06 04:30:35;;;;;;;24.88;12.60;;;;;;;8.13;84.45;93650.47;5027406;28;20037;-53
2020/12/06 04:33:00;;;;;;;26.63;13.27;;;;;;;8.02;84.91;93661.66;5024436;28;20029;-52
2020/12/06 04:35:26;;;;;;;24.30;11.68;;;;;;;8.07;84.86;93660.81;5022320;28;20146;-51
2020/12/06 04:37:51;;;;;;;24.40;13.52;;;;;;;8.18;84.39;93655.13;5029256;28;20023;-54
2020/12/06 04:40:17;;;;;;;21.10;11.10;;;;;;;8.15;84.73;93658.91;5024998;28;20028;-56
2020/12/06 04:42:42;;;;;;;22.08;13.77;;;;;;;8.25;84.21;93663.50;5028154;28;20080;-54
2020/12/06 04:45:08;;;;;;;23.73;13.20;;;;;;;8.15;84.33;93664.41;5028751;28;20066;-53
2020/12/06 04:47:48;;;;;;;23.20;11.85;;;;;;;8.04;84.58;93651.63;5029605;28;20025;-55
2020/12/06 04:50:34;;;;;;;26.63;12.45;;;;;;;7.99;85.19;93657.22;5022716;28;20124;-54
2020/12/06 04:53:02;;;;;;;21.35;11.07;;;;;;;8.01;85.28;93665.69;5030659;28;20029;-54
2020/12/06 04:55:36;;;;;;;21.88;11.55;;;;;;;7.99;85.26;93659.97;5021799;28;20032;-54
2020/12/06 04:58:04;;;;;;;25.48;14.02;;;;;;;8.08;85.35;93663.03;5020863;28;20169;-54
2020/12/06 05:00:36;;;;;;;21.25;11.77;;;;;;;8.02;84.91;93650.66;5031396;28;20469;-54
2020/12/06 05:03:09;;;;;;;26.52;13.48;;;;;;;8.16;84.73;93658.41;5029505;28;20101;-55
2020/12/06 05:05:36;;;;;;;25.25;13.35;;;;;;;8.21;84.35;93659.56;5021255;28;20401;-55
2020/12/06 05:08:07;;;;;;;21.02;11.13;;;;;;;8.13;84.73;93659.47;5023316;28;20041;-54
2020/12/06 05:10:35;;;;;;;22.92;11.60;;;;;;;8.10;84.81;93663.25;5023118;28;20134;-55
2020/12/06 05:13:01;;;;;;;29.27;12.37;;;;;;;8.10;84.73;93659.78;5028888;28;21651;-56
2020/12/06 05:15:26;;;;;;;28.90;13.32;;;;;;;8.10;84.52;93665.28;5026532;28;20032;-53
2020/12/06 05:17:57;;;;;;;21.98;11.95;;;;;;;8.05;84.83;93663.38;5029835;28;20029;-56
2020/12/06 05:20:22;;;;;;;24.15;11.40;;;;;;;8.16;84.89;93663.16;5025120;28;20028;-53
2020/12/06 05:22:48;;;;;;;28.50;13.55;;;;;;;8.09;84.65;93664.53;5034746;28;20033;-55
2020/12/06 05:25:14;;;;;;;30.45;13.65;;;;;;;8.10;84.96;93668.75;5037770;28;20040;-55
2020/12/06 05:27:40;;;;;;;20.52;11.55;;;;;;;8.20;84.47;93675.34;5026614;28;20017;-53
2020/12/06 05:30:06;;;;;;;27.77;12.93;;;;;;;8.23;84.02;93673.50;5029640;28;20065;-51
2020/12/06 05:32:33;;;;;;;24.33;10.88;;;;;;;8.28;83.55;93664.47;5032110;28;20060;-52
2020/12/06 05:34:58;;;;;;;19.90;11.40;;;;;;;8.28;83.51;93672.72;5031485;28;20053;-54
2020/12/06 05:37:23;;;;;;;21.17;11.27;;;;;;;8.22;83.57;93674.78;5029215;28;20061;-51
2020/12/06 05:40:09;;;;;;;20.98;10.68;;;;;;;8.32;83.21;93673.13;5031611;28;20059;-53
2020/12/06 05:42:39;;;;;;;24.35;11.32;;;;;;;8.30;83.28;93664.66;5025172;28;20810;-56
2020/12/06 05:45:04;;;;;;;23.42;12.20;;;;;;;8.28;83.38;93665.22;5032609;28;20065;-52
2020/12/06 05:47:30;;;;;;;22.92;12.38;;;;;;;8.35;82.89;93669.34;5028972;28;20037;-54
2020/12/06 05:49:57;;;;;;;25.05;12.18;;;;;;;8.36;83.08;93665.28;5026969;28;20022;-53
2020/12/06 05:52:23;;;;;;;22.73;11.98;;;;;;;8.36;82.87;93674.28;5025709;28;20032;-54
2020/12/06 05:54:48;;;;;;;40.63;21.10;;;;;;;8.36;83.04;93677.03;5026164;28;20036;-57
2020/12/06 05:57:14;;;;;;;32.50;17.45;;;;;;;8.41;82.84;93678.22;5020311;28;20072;-54
2020/12/06 05:59:40;;;;;;;21.77;11.73;;;;;;;8.39;82.47;93678.00;5027509;28;20056;-55
2020/12/06 06:02:09;;;;;;;23.00;11.18;;;;;;;8.42;82.63;93676.97;5026650;28;20030;-53
2020/12/06 06:04:40;;;;;;;28.98;12.88;;;;;;;8.37;82.08;93680.53;5033909;28;20032;-57
2020/12/06 06:07:26;;;;;;;25.00;12.48;;;;;;;8.25;82.92;93682.75;5027363;28;20028;-54
2020/12/06 06:10:00;;;;;;;22.75;11.48;;;;;;;8.33;83.02;93688.38;5031245;28;20041;-56
2020/12/06 06:12:30;;;;;;;24.75;13.30;;;;;;;8.31;82.98;93691.66;5024838;28;20116;-55
2020/12/06 06:14:59;;;;;;;22.75;12.68;;;;;;;8.35;82.83;93691.34;5028336;28;20108;-54
2020/12/06 06:17:25;;;;;;;20.50;11.13;;;;;;;8.29;82.49;93690.72;5031424;28;20029;-54
2020/12/06 06:19:51;;;;;;;19.58;10.15;;;;;;;8.36;82.60;93690.06;5025892;28;20025;-52
2020/12/06 06:22:20;;;;;;;26.65;11.48;;;;;;;8.19;83.09;93690.34;5020957;28;20033;-53
2020/12/06 06:24:47;;;;;;;22.90;11.40;;;;;;;8.26;83.34;93691.75;5027912;28;20025;-54
2020/12/06 06:27:12;;;;;;;19.95;11.00;;;;;;;8.30;83.10;93697.69;5024767;28;20041;-55
2020/12/06 06:29:38;;;;;;;22.70;11.50;;;;;;;8.28;83.02;93695.47;5024634;28;20049;-54
2020/12/06 06:32:03;;;;;;;24.23;13.10;;;;;;;8.22;83.25;93697.56;5025983;28;20508;-52
2020/12/06 06:34:31;;;;;;;25.40;11.80;;;;;;;8.16;83.60;93702.41;5025277;28;20022;-53
2020/12/06 06:36:57;;;;;;;22.45;12.18;;;;;;;8.29;83.52;93704.47;5029338;28;20651;-54
2020/12/06 06:39:24;;;;;;;28.98;12.13;;;;;;;8.20;83.12;93689.09;5024488;28;20032;-52
2020/12/06 06:42:00;;;;;;;25.15;13.60;;;;;;;8.33;82.67;93713.13;5023663;28;20038;-55
2020/12/06 06:44:27;;;;;;;26.48;13.52;;;;;;;8.17;83.39;93712.13;5025830;28;20112;-55
2020/12/06 06:47:00;;;;;;;23.90;13.25;;;;;;;8.34;82.92;93712.59;5026819;28;20043;-54
2020/12/06 06:49:26;;;;;;;29.85;16.50;;;;;;;8.38;82.82;93715.06;5025082;28;20025;-55
2020/12/06 06:51:52;;;;;;;24.55;12.63;;;;;;;8.35;82.55;93716.84;5025921;28;20021;-56
2020/12/06 06:54:25;;;;;;;22.83;13.20;;;;;;;8.43;82.29;93719.69;5024678;28;20102;-55
2020/12/06 06:56:52;;;;;;;27.02;14.65;;;;;;;8.46;82.65;93715.16;5025050;28;20100;-52
2020/12/06 06:59:36;;;;;;;27.30;14.40;;;;;;;8.40;82.55;93720.78;5023601;28;20024;-54
2020/12/06 07:02:04;;;;;;;26.10;12.27;;;;;;;8.38;82.63;93726.06;5026966;28;20069;-56
2020/12/06 07:04:29;;;;;;;23.98;13.73;;;;;;;8.30;83.17;93717.69;5026797;28;20081;-55
2020/12/06 07:06:55;;;;;;;23.60;12.13;;;;;;;8.37;83.22;93728.06;5030050;28;20029;-54
2020/12/06 07:09:22;;;;;;;28.73;14.18;;;;;;;8.41;82.58;93713.97;5027184;28;20124;-55
2020/12/06 07:11:49;;;;;;;29.33;14.13;;;;;;;8.43;82.87;93721.69;5030792;28;20400;-54
2020/12/06 07:14:15;;;;;;;28.65;15.63;;;;;;;8.23;83.55;93718.28;5027501;28;20108;-56
2020/12/06 07:16:40;;;;;;;25.80;14.18;;;;;;;8.23;83.51;93721.03;5030775;28;20503;-56
2020/12/06 07:19:06;;;;;;;28.77;14.95;;;;;;;8.43;83.27;93719.69;5037988;28;20017;-51
2020/12/06 07:21:36;;;;;;;28.75;14.55;;;;;;;8.40;82.85;93709.75;5033105;28;20037;-54
2020/12/06 07:24:03;;;;;;;26.15;13.23;;;;;;;8.40;82.75;93707.72;5024531;28;20516;-53
2020/12/06 07:26:29;;;;;;;24.58;13.18;;;;;;;8.32;83.33;93708.88;5027820;28;20366;-54
2020/12/06 07:28:56;;;;;;;28.92;14.07;;;;;;;8.39;82.97;93703.50;5017807;28;20067;-51
2020/12/06 07:31:21;;;;;;;28.75;16.75;;;;;;;8.33;83.64;93694.63;5018715;28;20038;-55
2020/12/06 07:33:47;;;;;;;25.15;13.73;;;;;;;8.52;83.10;93707.53;5022168;28;20531;-50
2020/12/06 07:36:12;;;;;;;30.63;12.52;;;;;;;8.48;82.36;93704.34;5017396;28;20483;-54
2020/12/06 07:38:38;;;;;;;26.70;13.95;;;;;;;8.54;82.75;93702.97;5028388;27;20099;-50
2020/12/06 07:41:04;;;;;;;28.50;14.55;;;;;;;8.63;82.28;93699.81;5016183;28;20037;-56
2020/12/06 07:43:30;;;;;;;25.08;14.05;;;;;;;8.71;81.66;93700.66;5016324;28;20025;-55
2020/12/06 07:45:55;;;;;;;28.65;15.77;;;;;;;8.75;81.53;93706.56;5026332;28;20512;-55
2020/12/06 07:48:22;;;;;;;29.92;13.80;;;;;;;8.82;80.83;93700.44;5024352;28;20026;-53
2020/12/06 07:50:47;;;;;;;27.63;14.90;;;;;;;8.80;81.03;93697.47;5019909;28;20458;-53
2020/12/06 07:53:12;;;;;;;26.27;13.88;;;;;;;8.44;82.17;93704.69;5026202;28;20037;-55
2020/12/06 07:55:38;;;;;;;31.58;14.25;;;;;;;8.36;82.73;93696.31;5022986;28;20021;-57
2020/12/06 07:58:14;;;;;;;27.25;14.82;;;;;;;8.38;82.84;93701.31;5024626;28;20021;-51
2020/12/06 08:00:40;;;;;;;36.22;15.02;;;;;;;8.39;83.31;93702.75;5019735;28;20446;-53
2020/12/06 08:03:06;;;;;;;26.98;14.35;;;;;;;8.55;82.34;93704.47;5019939;27;20037;-56
2020/12/06 08:05:36;;;;;;;32.33;14.18;;;;;;;8.47;82.21;93698.09;5022967;28;20029;-52
2020/12/06 08:08:19;;;;;;;23.85;12.68;;;;;;;8.39;82.61;93700.75;5015863;28;20025;-56
2020/12/06 08:10:50;;;;;;;32.30;16.45;;;;;;;8.34;82.86;93696.09;5024683;28;20108;-54
2020/12/06 08:13:16;;;;;;;44.15;23.23;;;;;;;8.31;83.18;93691.66;5016204;28;20026;-55
2020/12/06 08:15:41;;;;;;;24.40;13.25;;;;;;;8.28;83.66;93698.22;5021079;28;20032;-57
2020/12/06 08:18:14;;;;;;;26.35;12.98;;;;;;;8.27;83.35;93693.25;5015393;28;20098;-55
2020/12/06 08:20:40;;;;;;;30.50;15.98;;;;;;;8.32;83.37;93695.88;5022240;28;20392;-50
2020/12/06 08:23:05;;;;;;;26.65;13.45;;;;;;;8.20;83.31;93682.84;5019207;28;20037;-52
2020/12/06 08:25:33;;;;;;;31.08;14.77;;;;;;;8.27;83.10;93702.22;5025492;28;20029;-55
2020/12/06 08:28:00;;;;;;;27.33;15.23;;;;;;;8.26;83.36;93695.25;5028136;28;20056;-54
2020/12/06 08:30:27;;;;;;;28.80;16.58;;;;;;;8.22;83.35;93694.06;5020998;28;20049;-54
2020/12/06 08:33:00;;;;;;;29.33;15.25;;;;;;;8.31;83.41;93688.91;5020825;28;20029;-54
2020/12/06 08:35:38;;;;;;;29.27;15.63;;;;;;;8.21;84.01;93687.06;5020940;28;20119;-54
2020/12/06 08:38:27;;;;;;;27.08;14.13;;;;;;;8.35;83.16;93677.59;5023753;28;20052;-51
2020/12/06 08:41:04;;;;;;;25.57;14.27;;;;;;;8.51;82.53;93687.53;5025715;28;20025;-54
2020/12/06 08:43:47;;;;;;;32.40;17.42;;;;;;;8.53;83.01;93687.75;5023725;28;20271;-53
2020/12/06 08:46:17;;;;;;;31.50;15.50;;;;;;;8.41;83.16;93686.47;5019686;28;20044;-56
2020/12/06 08:48:43;;;;;;;27.73;15.75;;;;;;;8.32;82.97;93689.63;5023552;28;20389;-51
2020/12/06 08:51:31;;;;;;;26.70;14.60;;;;;;;8.44;82.62;93682.66;5023695;28;20048;-54
2020/12/06 08:53:59;;;;;;;24.73;13.13;;;;;;;8.37;82.79;93675.03;5022423;28;20044;-55
2020/12/06 08:56:27;;;;;;;26.85;14.52;;;;;;;8.40;82.64;93671.25;5017740;28;20614;-56
2020/12/06 08:58:53;;;;;;;32.47;14.32;;;;;;;8.46;82.63;93674.63;5018284;28;20070;-53
2020/12/06 09:01:19;;;;;;;25.73;14.30;;;;;;;8.48;82.83;93661.06;5018834;28;20396;-56
2020/12/06 09:03:44;;;;;;;28.33;14.25;;;;;;;8.49;82.32;93661.81;5025704;28;20028;-51
2020/12/06 09:06:17;;;;;;;30.08;15.55;;;;;;;8.52;82.50;93666.25;5020190;28;20071;-53
2020/12/06 09:08:43;;;;;;;29.60;15.07;;;;;;;8.58;82.84;93664.13;5026098;28;20029;-53
2020/12/06 09:11:34;;;;;;;24.95;13.57;;;;;;;8.70;81.44;93659.91;5018941;28;20500;-55
2020/12/06 09:14:00;;;;;;;28.42;12.90;;;;;;;8.77;81.13;93648.97;5029072;28;20069;-54
2020/12/06 09:16:26;;;;;;;25.98;14.05;;;;;;;8.70;80.69;93638.63;5028186;28;20440;-55
2020/12/06 09:18:51;;;;;;;24.08;12.65;;;;;;;8.63;81.28;93650.28;5020814;28;20018;-50
2020/12/06 09:21:16;;;;;;;29.48;15.13;;;;;;;8.61;81.14;93633.56;5020281;28;20385;-53
2020/12/06 09:23:42;;;;;;;25.83;13.63;;;;;;;8.67;81.08;93649.94;5017122;28;20498;-55
2020/12/06 09:26:08;;;;;;;24.35;11.88;;;;;;;8.63;80.76;93644.75;5020859;28;20027;-54
2020/12/06 09:28:34;;;;;;;24.80;13.63;;;;;;;8.65;80.63;93642.22;5025366;28;20044;-54
2020/12/06 09:31:00;;;;;;;25.50;14.00;;;;;;;8.62;80.86;93632.25;5020065;28;20489;-52
2020/12/06 09:33:26;;;;;;;24.02;13.55;;;;;;;8.71;80.76;93642.84;5021735;28;20097;-53
2020/12/06 09:35:52;;;;;;;20.20;13.10;;;;;;;8.71;80.66;93633.84;5022279;28;20427;-52
2020/12/06 09:38:17;;;;;;;23.70;13.45;;;;;;;8.74;80.52;93633.53;5027603;28;20093;-55
2020/12/06 09:40:43;;;;;;;23.55;13.32;;;;;;;8.87;80.21;93624.50;5019466;28;20029;-50
2020/12/06 09:43:09;;;;;;;22.50;12.60;;;;;;;8.79;80.27;93615.41;5025812;28;20077;-52
2020/12/06 09:45:34;;;;;;;26.08;13.95;;;;;;;8.79;80.20;93609.91;5023007;28;20166;-50
2020/12/06 09:48:00;;;;;;;25.33;12.55;;;;;;;8.81;79.57;93599.84;5025649;28;20030;-55
2020/12/06 09:50:25;;;;;;;24.42;13.00;;;;;;;8.79;80.08;93605.13;5013124;28;20041;-52
2020/12/06 09:52:51;;;;;;;21.08;13.00;;;;;;;8.84;80.05;93598.03;5027648;28;20556;-53
2020/12/06 09:55:16;;;;;;;20.23;11.27;;;;;;;8.85;79.61;93597.50;5019060;28;20021;-53
2020/12/06 09:57:42;;;;;;;20.38;12.07;;;;;;;8.94;79.71;93593.56;5025339;28;20824;-55
2020/12/06 10:00:07;;;;;;;21.75;11.45;;;;;;;8.93;79.30;93576.28;5018199;28;20358;-55
2020/12/06 10:02:33;;;;;;;20.15;11.07;;;;;;;8.99;79.37;93581.66;5020083;28;20041;-54
2020/12/06 10:04:58;;;;;;;19.65;11.02;;;;;;;9.04;79.22;93583.56;5023147;28;22249;-53
2020/12/06 10:07:25;;;;;;;25.90;12.70;;;;;;;8.95;78.86;93576.50;5019151;28;20025;-53
2020/12/06 10:09:51;;;;;;;23.58;11.88;;;;;;;8.87;79.59;93575.69;5017470;28;20484;-51
2020/12/06 10:12:17;;;;;;;21.08;12.82;;;;;;;9.00;80.21;93570.13;5027314;28;20032;-55
2020/12/06 10:14:42;;;;;;;23.13;14.10;;;;;;;8.81;79.91;93560.56;5029073;28;20437;-53
2020/12/06 10:17:08;;;;;;;23.17;11.40;;;;;;;8.89;80.01;93578.63;5023873;27;20060;-51
2020/12/06 10:19:34;;;;;;;18.65;11.85;;;;;;;8.74;80.22;93561.22;5015778;28;20037;-55
2020/12/06 10:21:59;;;;;;;26.58;13.68;;;;;;;8.77;80.31;93568.41;5024819;28;20511;-55
2020/12/06 10:24:25;;;;;;;23.05;12.77;;;;;;;8.71;80.30;93570.53;5022865;28;20039;-52
2020/12/06 10:26:55;;;;;;;21.02;11.07;;;;;;;8.71;80.45;93576.03;5016932;28;20033;-54
2020/12/06 10:29:21;;;;;;;20.77;11.13;;;;;;;8.55;80.94;93575.13;5025977;28;20066;-53
2020/12/06 10:31:53;;;;;;;23.85;12.32;;;;;;;8.64;81.06;93562.94;5020287;28;20033;-53
2020/12/06 10:34:19;;;;;;;22.65;12.10;;;;;;;8.66;80.79;93558.38;5016901;28;20025;-55
2020/12/06 10:36:54;;;;;;;20.55;12.35;;;;;;;8.57;81.27;93553.31;5015042;28;20047;-53
2020/12/06 10:39:20;;;;;;;20.13;10.43;;;;;;;8.51;81.28;93541.69;5018513;28;20030;-55
2020/12/06 10:41:53;;;;;;;22.38;12.77;;;;;;;8.60;81.37;93546.03;5020896;28;20037;-51
2020/12/06 10:44:19;;;;;;;15.60;9.57;;;;;;;8.68;80.40;93546.84;5027012;28;20047;-55
2020/12/06 10:46:45;;;;;;;21.50;11.38;;;;;;;8.45;81.26;93535.56;5018041;28;22825;-53
2020/12/06 10:49:12;;;;;;;19.85;10.88;;;;;;;8.54;81.51;93531.63;5008280;28;20128;-55
2020/12/06 10:51:38;;;;;;;28.25;14.65;;;;;;;8.61;81.39;93548.22;5018861;28;20136;-56
2020/12/06 10:54:04;;;;;;;30.58;17.02;;;;;;;8.61;81.60;93539.97;5017589;28;21048;-54
2020/12/06 10:56:29;;;;;;;18.00;10.82;;;;;;;8.74;81.57;93531.69;5020616;28;20021;-54
2020/12/06 10:58:55;;;;;;;25.52;13.80;;;;;;;8.96;80.46;93533.19;5022445;28;20022;-50
2020/12/06 11:01:27;;;;;;;17.48;10.60;;;;;;;9.05;78.81;93532.72;5023494;28;20855;-54
2020/12/06 11:03:53;;;;;;;16.95;9.80;;;;;;;8.98;79.13;93536.13;5018169;28;20029;-56
2020/12/06 11:06:22;;;;;;;18.63;9.52;;;;;;;8.97;79.06;93529.88;5020702;28;20110;-53
2020/12/06 11:08:48;;;;;;;16.92;10.65;;;;;;;8.85;79.13;93525.19;5023905;28;20461;-53
2020/12/06 11:11:14;;;;;;;16.88;10.25;;;;;;;8.77;79.64;93530.59;5020901;28;20060;-55
2020/12/06 11:13:40;;;;;;;16.15;9.80;;;;;;;8.67;79.85;93528.84;5022888;28;20762;-54
2020/12/06 11:16:06;;;;;;;16.52;8.70;;;;;;;8.71;79.88;93541.00;5020325;28;20029;-52
2020/12/06 11:18:31;;;;;;;18.90;9.65;;;;;;;8.63;80.07;93531.94;5020632;28;20025;-54
2020/12/06 11:20:57;;;;;;;16.02;9.18;;;;;;;8.62;80.64;93544.19;5021419;28;20041;-54
2020/12/06 11:23:22;;;;;;;20.02;10.13;;;;;;;8.52;80.60;93525.91;5024454;28;20033;-53
2020/12/06 11:25:47;;;;;;;14.77;8.50;;;;;;;8.57;80.50;93525.81;5017567;28;20025;-54